1859 NOT_NAMED (1859021S14078)


IBTrACS version v04r00. Visit IBTrACS website for data access.
Please direct all questions to the IBTrACS Q and A forum

Storm track - Intensity - Wind Radii - Intensity Data - Source Data - All data

Summary Information

Storm ID 1859021S14078
Start Jan 21 06Z
End Jan 27 06Z
ATCF IDs
Track status Best track data.

Storm track plot

Map of storm track

Intensity plots

No Intensity information for this storm


Radial wind information

No radial wind information for this storm


Position and Intensity Table

BASIN ISO_TIME_________ NATURE LAT LON
degrees north degrees east
SI 1859-01-21 06:00:00 NR -14.20 78.40
SI 09:00:00 NR -14.21 78.32
SI 12:00:00 NR -14.23 78.23
SI 15:00:00 NR -14.24 78.13
SI 18:00:00 NR -14.24 78.01
SI 21:00:00 NR -14.24 77.88
SI 1859-01-22 00:00:00 NR -14.24 77.72
SI 03:00:00 NR -14.22 77.53
SI 06:00:00 NR -14.20 77.30
SI 09:00:00 NR -14.17 77.03
SI 12:00:00 NR -14.13 76.73
SI 15:00:00 NR -14.09 76.41
SI 18:00:00 NR -14.05 76.06
SI 21:00:00 NR -14.03 75.70
SI 1859-01-23 00:00:00 NR -14.03 75.33
SI 03:00:00 NR -14.05 74.96
SI 06:00:00 NR -14.10 74.60
SI 09:00:00 NR -14.21 74.26
SI 12:00:00 NR -14.35 73.93
SI 15:00:00 NR -14.52 73.59
SI 18:00:00 NR -14.70 73.26
SI 21:00:00 NR -14.88 72.94
SI 1859-01-24 00:00:00 NR -15.07 72.62
SI 03:00:00 NR -15.24 72.31
SI 06:00:00 NR -15.40 72.00
SI 09:00:00 NR -15.50 71.73
SI 12:00:00 NR -15.58 71.47
SI 15:00:00 NR -15.65 71.21
SI 18:00:00 NR -15.71 70.96
SI 21:00:00 NR -15.77 70.69
SI 1859-01-25 00:00:00 NR -15.84 70.42
SI 03:00:00 NR -15.91 70.12
SI 06:00:00 NR -16.00 69.80
SI 09:00:00 NR -16.13 69.38
SI 12:00:00 NR -16.27 68.93
SI 15:00:00 NR -16.42 68.47
SI 18:00:00 NR -16.57 68.00
SI 21:00:00 NR -16.72 67.54
SI 1859-01-26 00:00:00 NR -16.86 67.11
SI 03:00:00 NR -16.99 66.73
SI 06:00:00 NR -17.10 66.40
SI 09:00:00 NR -17.19 66.14
SI 12:00:00 NR -17.27 65.94
SI 15:00:00 NR -17.33 65.80
SI 18:00:00 NR -17.38 65.71
SI 21:00:00 NR -17.42 65.65
SI 1859-01-27 00:00:00 NR -17.45 65.62
SI 03:00:00 NR -17.48 65.60
SI 06:00:00 NR -17.50 65.60

Source Information

Agency Information
USA
TOKYO
CMA
HKO
NEWDELHI
REUNION WMO-Best-Tracks.txt:Line=185:xxxx859028
BOM
NADI
WELLINGTON
DS824
TD9636
TD9635
NEUMANN
MLC

All available IBTrACS Data

SEASON BASIN SUBBASIN ISO_TIME_________ NATURE LAT LON WMO AGENCY DIST2LAND LANDFALL IFLAG USA SSHS REUNION LAT REUNION LON REUNION TYPE REUNION TNUM STORM SPEED STORM DIR
Year degrees north degrees east km km 1 degrees north degrees east 1 kts degrees
1859 SI MM 1859-01-21 06:00:00 NR -14.20 78.40 reunion 2264 2264 _____O________ -1 -14.20 78.40 99 9.90 2 259
1859 SI MM 09:00:00 NR -14.21 78.32 2266 2266 _____P________ -1 -14.21 78.32 99 2 261
1859 SI MM 12:00:00 NR -14.23 78.23 2267 2259 _____P________ -1 -14.23 78.23 99 2 263
1859 SI MM 15:00:00 NR -14.24 78.13 2259 2249 _____P________ -1 -14.24 78.13 99 2 265
1859 SI MM 18:00:00 NR -14.24 78.01 2249 2239 _____P________ -1 -14.24 78.01 99 2 268
1859 SI MM 21:00:00 NR -14.24 77.88 2239 2219 _____P________ -1 -14.24 77.88 99 3 271
1859 SI MM 1859-01-22 00:00:00 NR -14.24 77.72 2219 2198 _____P________ -1 -14.24 77.72 99 3 273
1859 SI MM 03:00:00 NR -14.22 77.53 2198 2178 _____P________ -1 -14.22 77.53 99 4 275
1859 SI MM 06:00:00 NR -14.20 77.30 reunion 2178 2158 _____O________ -1 -14.20 77.30 99 9.90 5 277
1859 SI MM 09:00:00 NR -14.17 77.03 2148 2132 _____P________ -1 -14.17 77.03 99 6 278
1859 SI MM 12:00:00 NR -14.13 76.73 2122 2092 _____P________ -1 -14.13 76.73 99 6 277
1859 SI MM 15:00:00 NR -14.09 76.41 2092 2062 _____P________ -1 -14.09 76.41 99 7 276
1859 SI MM 18:00:00 NR -14.05 76.06 2062 2026 _____P________ -1 -14.05 76.06 99 7 275
1859 SI MM 21:00:00 NR -14.03 75.70 2026 1997 _____P________ -1 -14.03 75.70 99 7 272
1859 SI MM 1859-01-23 00:00:00 NR -14.03 75.33 1987 1957 _____P________ -1 -14.03 75.33 99 7 269
1859 SI MM 03:00:00 NR -14.05 74.96 1957 1913 _____P________ -1 -14.05 74.96 99 7 264
1859 SI MM 06:00:00 NR -14.10 74.60 reunion 1913 1879 _____O________ -1 -14.10 74.60 99 9.90 7 257
1859 SI MM 09:00:00 NR -14.21 74.26 1879 1835 _____P________ -1 -14.21 74.26 99 7 249
1859 SI MM 12:00:00 NR -14.35 73.93 1830 1796 _____P________ -1 -14.35 73.93 99 7 245
1859 SI MM 15:00:00 NR -14.52 73.59 1796 1758 _____P________ -1 -14.52 73.59 99 7 242
1859 SI MM 18:00:00 NR -14.70 73.26 1758 1719 _____P________ -1 -14.70 73.26 99 7 240
1859 SI MM 21:00:00 NR -14.88 72.94 1709 1671 _____P________ -1 -14.88 72.94 99 7 239
1859 SI MM 1859-01-24 00:00:00 NR -15.07 72.62 1671 1637 _____P________ -1 -15.07 72.62 99 7 240
1859 SI MM 03:00:00 NR -15.24 72.31 1637 1599 _____P________ -1 -15.24 72.31 99 7 241
1859 SI MM 06:00:00 NR -15.40 72.00 reunion 1599 1565 _____O________ -1 -15.40 72.00 99 9.90 6 245
1859 SI MM 09:00:00 NR -15.50 71.73 1565 1541 _____P________ -1 -15.50 71.73 99 5 251
1859 SI MM 12:00:00 NR -15.58 71.47 1541 1511 _____P________ -1 -15.58 71.47 99 5 253
1859 SI MM 15:00:00 NR -15.65 71.21 1511 1487 _____P________ -1 -15.65 71.21 99 5 255
1859 SI MM 18:00:00 NR -15.71 70.96 1487 1453 _____P________ -1 -15.71 70.96 99 5 256
1859 SI MM 21:00:00 NR -15.77 70.69 1453 1423 _____P________ -1 -15.77 70.69 99 5 256
1859 SI MM 1859-01-25 00:00:00 NR -15.84 70.42 1423 1389 _____P________ -1 -15.84 70.42 99 6 256
1859 SI MM 03:00:00 NR -15.91 70.12 1389 1355 _____P________ -1 -15.91 70.12 99 6 255
1859 SI MM 06:00:00 NR -16.00 69.80 reunion 1355 1311 _____O________ -1 -16.00 69.80 99 9.90 7 253
1859 SI MM 09:00:00 NR -16.13 69.38 1311 1263 _____P________ -1 -16.13 69.38 99 9 252
1859 SI MM 12:00:00 NR -16.27 68.93 1254 1210 _____P________ -1 -16.27 68.93 99 9 252
1859 SI MM 15:00:00 NR -16.42 68.47 1210 1152 _____P________ -1 -16.42 68.47 99 9 252
1859 SI MM 18:00:00 NR -16.57 68.00 1152 1108 _____P________ -1 -16.57 68.00 99 9 251
1859 SI MM 21:00:00 NR -16.72 67.54 1099 1051 _____P________ -1 -16.72 67.54 99 9 251
1859 SI MM 1859-01-26 00:00:00 NR -16.86 67.11 1051 1007 _____P________ -1 -16.86 67.11 99 8 251
1859 SI MM 03:00:00 NR -16.99 66.73 1007 973 _____P________ -1 -16.99 66.73 99 7 250
1859 SI MM 06:00:00 NR -17.10 66.40 reunion 973 949 _____O________ -1 -17.10 66.40 99 9.90 6 250
1859 SI MM 09:00:00 NR -17.19 66.14 940 925 _____P________ -1 -17.19 66.14 99 5 249
1859 SI MM 12:00:00 NR -17.27 65.94 916 906 _____P________ -1 -17.27 65.94 99 4 247
1859 SI MM 15:00:00 NR -17.33 65.80 906 892 _____P________ -1 -17.33 65.80 99 3 244
1859 SI MM 18:00:00 NR -17.38 65.71 892 892 _____P________ -1 -17.38 65.71 99 2 240
1859 SI MM 21:00:00 NR -17.42 65.65 882 882 _____P________ -1 -17.42 65.65 99 1 231
1859 SI MM 1859-01-27 00:00:00 NR -17.45 65.62 882 878 _____P________ -1 -17.45 65.62 99 1 213
1859 SI MM 03:00:00 NR -17.48 65.60 878 878 _____P________ -1 -17.48 65.60 99 1 206
1859 SI MM 06:00:00 NR -17.50 65.60 reunion 878 _____O________ -1 -17.50 65.60 99 9.90 0 0